This is the latest recevied weather packets stored in our database for station/object K4OAM-13. If no packets are shown the sender has not sent any weather packets the latest 10 day(s).
| Time | Temp. | Humidity | Pressure | Rain* | Wind** | Luminosity | Snow |
|---|---|---|---|---|---|---|---|
| 1777698355 | -1.11° C | 84% | 1030.6 hPa | - | - | - | - |
| 1777697756 | -0.56° C | 83% | 1030.5 hPa | - | - | - | - |
| 1777697155 | -0.56° C | 84% | 1030.6 hPa | - | - | - | - |
| 1777696555 | -0.56° C | 83% | 1030.6 hPa | - | - | - | - |
| 1777695955 | -0.56° C | 83% | 1030.5 hPa | - | - | - | - |
| 1777695355 | -0.56° C | 83% | 1030.6 hPa | - | - | - | - |
| 1777694755 | -0.56° C | 84% | 1030.4 hPa | - | - | - | - |
| 1777694155 | -0.56° C | 85% | 1030.4 hPa | - | - | - | - |
| 1777693555 | -0.56° C | 85% | 1030.4 hPa | - | - | - | - |
| 1777692955 | -0.56° C | 84% | 1030.5 hPa | - | - | - | - |
| 1777692355 | -1.11° C | 85% | 1030.6 hPa | - | - | - | - |
| 1777691756 | -0.56° C | 83% | 1030.5 hPa | - | - | - | - |
| 1777690765 | 0° C | 82% | 1030.1 hPa | - | - | - | - |
| 1777690548 | -0.56° C | 80% | 1030.2 hPa | - | - | - | - |
| 1777690488 | 0° C | 79% | 1030.2 hPa | - | - | - | - |
| 1777690349 | 0° C | 78% | 1030.3 hPa | - | - | - | - |
| 1777625225 | 3.33° C | 10% | - | - | - | - | - |
| 1777624625 | 3.33° C | 99% | 1013.6 hPa | - | - | - | - |
| 1777624024 | 3.89° C | 93% | 1013.4 hPa | - | - | - | - |
| 1777623424 | 4.44° C | 92% | 1013 hPa | - | - | - | - |
| 1777622825 | 4.44° C | 95% | 1012.6 hPa | - | - | - | - |
| 1777622224 | 4.44° C | 96% | 1012.3 hPa | - | - | - | - |
| 1777621625 | 4.44° C | 99% | 1012.2 hPa | - | - | - | - |
| 1777621024 | 5° C | 99% | 1011.8 hPa | - | - | - | - |
| 1777620424 | 5° C | 10% | - | - | - | - | - |
* Rain since midnight (hover to see other rain measurements)
** Current wind speed in m/s (hover to see current wind gust speed)